SBPG/PNG METAR and TAF weather

Enter ICAO airport designator
Station Type Date Time Source
SBPG METAR 2019/04/22 16:00 UTC NOAA

SBPG 221600Z 17004KT 9999 SCT030 OVC070 23/19 Q1016


Station Type Date Time Source
SBPG Decoded METAR 2019/04/22 16:00 UTC NOAA

Paranagua, Brazil (SBPG) 25-31S 048-31W
Apr 22, 2019 - 12:00 PM EDT / 2019.04.22 1600 UTC
Wind: from the S (170 degrees) at 5 MPH (4 KT):0
Visibility: greater than 7 mile(s):0
Sky conditions: overcast
Temperature: 73 F (23 C)
Dew Point: 66 F (19 C)
Relative Humidity: 78%
Pressure (altimeter): 30.00 in. Hg (1016 hPa)
ob: SBPG 221600Z 17004KT 9999 SCT030 OVC070 23/19 Q1016
cycle: 16

Station Type Date Time Source
SBPG TAF UTC NOAA

Error!

Example: see airport list